sensor_id;sensor_type;location;lat;lon;timestamp;P1;durP1;ratioP1;P2;durP2;ratioP2
6997;SDS011;3539;47.982;12.238;2022-12-01T00:01:46;51.60;;;32.60;;
6997;SDS011;3539;47.982;12.238;2022-12-01T00:04:13;50.57;;;32.80;;
6997;SDS011;3539;47.982;12.238;2022-12-01T00:06:40;52.53;;;32.00;;
6997;SDS011;3539;47.982;12.238;2022-12-01T00:09:07;50.60;;;31.77;;
6997;SDS011;3539;47.982;12.238;2022-12-01T00:11:52;52.10;;;30.60;;
6997;SDS011;3539;47.982;12.238;2022-12-01T00:14:20;53.80;;;33.80;;
6997;SDS011;3539;47.982;12.238;2022-12-01T00:16:47;55.47;;;35.13;;
6997;SDS011;3539;47.982;12.238;2022-12-01T00:19:14;55.73;;;32.67;;
6997;SDS011;3539;47.982;12.238;2022-12-01T00:21:41;57.70;;;35.47;;
6997;SDS011;3539;47.982;12.238;2022-12-01T00:24:09;58.70;;;33.63;;
6997;SDS011;3539;47.982;12.238;2022-12-01T00:26:36;57.07;;;32.87;;
6997;SDS011;3539;47.982;12.238;2022-12-01T00:29:03;58.00;;;34.33;;
6997;SDS011;3539;47.982;12.238;2022-12-01T00:31:31;54.17;;;32.47;;
6997;SDS011;3539;47.982;12.238;2022-12-01T00:33:59;60.47;;;34.40;;
6997;SDS011;3539;47.982;12.238;2022-12-01T00:36:26;59.73;;;32.97;;
6997;SDS011;3539;47.982;12.238;2022-12-01T00:38:53;58.33;;;34.50;;
6997;SDS011;3539;47.982;12.238;2022-12-01T00:41:21;60.23;;;35.63;;
6997;SDS011;3539;47.982;12.238;2022-12-01T00:43:48;58.90;;;33.20;;
6997;SDS011;3539;47.982;12.238;2022-12-01T00:46:15;60.03;;;33.83;;
6997;SDS011;3539;47.982;12.238;2022-12-01T00:48:43;64.03;;;36.03;;
6997;SDS011;3539;47.982;12.238;2022-12-01T00:51:10;63.20;;;36.30;;
6997;SDS011;3539;47.982;12.238;2022-12-01T00:53:37;64.13;;;36.20;;
6997;SDS011;3539;47.982;12.238;2022-12-01T00:56:04;63.30;;;36.40;;
6997;SDS011;3539;47.982;12.238;2022-12-01T00:58:31;62.33;;;36.17;;
6997;SDS011;3539;47.982;12.238;2022-12-01T01:00:58;64.67;;;35.53;;
6997;SDS011;3539;47.982;12.238;2022-12-01T01:03:26;61.30;;;34.80;;
6997;SDS011;3539;47.982;12.238;2022-12-01T01:05:55;61.23;;;36.13;;
6997;SDS011;3539;47.982;12.238;2022-12-01T01:08:21;63.23;;;36.43;;
6997;SDS011;3539;47.982;12.238;2022-12-01T01:10:48;65.43;;;37.43;;
6997;SDS011;3539;47.982;12.238;2022-12-01T01:13:15;60.00;;;35.60;;
6997;SDS011;3539;47.982;12.238;2022-12-01T01:15:42;62.57;;;34.03;;
6997;SDS011;3539;47.982;12.238;2022-12-01T01:18:09;61.73;;;36.10;;
6997;SDS011;3539;47.982;12.238;2022-12-01T01:20:37;57.17;;;34.93;;
6997;SDS011;3539;47.982;12.238;2022-12-01T01:23:05;62.57;;;35.23;;
6997;SDS011;3539;47.982;12.238;2022-12-01T01:25:32;55.33;;;33.80;;
6997;SDS011;3539;47.982;12.238;2022-12-01T01:27:59;60.37;;;33.27;;
6997;SDS011;3539;47.982;12.238;2022-12-01T01:30:25;55.47;;;33.57;;
6997;SDS011;3539;47.982;12.238;2022-12-01T01:32:52;65.67;;;36.80;;
6997;SDS011;3539;47.982;12.238;2022-12-01T01:35:19;57.17;;;35.33;;
6997;SDS011;3539;47.982;12.238;2022-12-01T01:37:46;64.00;;;34.77;;
6997;SDS011;3539;47.982;12.238;2022-12-01T01:40:15;61.20;;;34.97;;
6997;SDS011;3539;47.982;12.238;2022-12-01T01:42:42;61.30;;;35.63;;
6997;SDS011;3539;47.982;12.238;2022-12-01T01:45:15;59.57;;;34.30;;
6997;SDS011;3539;47.982;12.238;2022-12-01T01:47:45;60.87;;;34.30;;
6997;SDS011;3539;47.982;12.238;2022-12-01T01:50:12;57.17;;;33.27;;
6997;SDS011;3539;47.982;12.238;2022-12-01T01:52:41;59.97;;;33.33;;
6997;SDS011;3539;47.982;12.238;2022-12-01T01:55:10;58.93;;;35.03;;
6997;SDS011;3539;47.982;12.238;2022-12-01T01:57:39;60.47;;;34.00;;
6997;SDS011;3539;47.982;12.238;2022-12-01T02:00:07;58.63;;;33.43;;
6997;SDS011;3539;47.982;12.238;2022-12-01T02:02:42;60.20;;;36.73;;
6997;SDS011;3539;47.982;12.238;2022-12-01T02:05:11;63.50;;;34.13;;
6997;SDS011;3539;47.982;12.238;2022-12-01T02:07:39;58.60;;;34.80;;
6997;SDS011;3539;47.982;12.238;2022-12-01T02:10:07;61.33;;;35.83;;
6997;SDS011;3539;47.982;12.238;2022-12-01T02:12:41;60.27;;;34.37;;
6997;SDS011;3539;47.982;12.238;2022-12-01T02:15:17;56.07;;;32.30;;
6997;SDS011;3539;47.982;12.238;2022-12-01T02:17:51;58.23;;;34.03;;
6997;SDS011;3539;47.982;12.238;2022-12-01T02:20:32;57.60;;;32.73;;
6997;SDS011;3539;47.982;12.238;2022-12-01T02:26:36;64.63;;;34.40;;
6997;SDS011;3539;47.982;12.238;2022-12-01T02:32:16;63.03;;;33.30;;
6997;SDS011;3539;47.982;12.238;2022-12-01T02:34:46;62.80;;;36.00;;
6997;SDS011;3539;47.982;12.238;2022-12-01T02:37:22;64.87;;;33.87;;
6997;SDS011;3539;47.982;12.238;2022-12-01T02:39:53;68.43;;;35.40;;
6997;SDS011;3539;47.982;12.238;2022-12-01T02:42:23;73.97;;;35.90;;
6997;SDS011;3539;47.982;12.238;2022-12-01T02:45:12;72.33;;;35.37;;
6997;SDS011;3539;47.982;12.238;2022-12-01T02:47:46;67.70;;;35.33;;
6997;SDS011;3539;47.982;12.238;2022-12-01T02:50:14;65.93;;;34.93;;
6997;SDS011;3539;47.982;12.238;2022-12-01T02:52:41;70.87;;;35.67;;
6997;SDS011;3539;47.982;12.238;2022-12-01T02:55:08;69.93;;;35.13;;
6997;SDS011;3539;47.982;12.238;2022-12-01T02:57:35;71.73;;;37.50;;
6997;SDS011;3539;47.982;12.238;2022-12-01T03:00:02;70.63;;;37.53;;
6997;SDS011;3539;47.982;12.238;2022-12-01T03:02:31;68.97;;;35.17;;
6997;SDS011;3539;47.982;12.238;2022-12-01T03:05:09;68.40;;;34.93;;
6997;SDS011;3539;47.982;12.238;2022-12-01T03:07:44;66.53;;;34.93;;
6997;SDS011;3539;47.982;12.238;2022-12-01T03:10:20;70.50;;;37.63;;
6997;SDS011;3539;47.982;12.238;2022-12-01T03:12:55;72.63;;;37.57;;
6997;SDS011;3539;47.982;12.238;2022-12-01T03:15:29;74.57;;;37.60;;
6997;SDS011;3539;47.982;12.238;2022-12-01T03:18:00;68.07;;;36.67;;
6997;SDS011;3539;47.982;12.238;2022-12-01T03:20:36;62.90;;;34.60;;
6997;SDS011;3539;47.982;12.238;2022-12-01T03:23:06;62.73;;;34.27;;
6997;SDS011;3539;47.982;12.238;2022-12-01T03:25:35;63.47;;;34.53;;
6997;SDS011;3539;47.982;12.238;2022-12-01T03:28:03;64.63;;;34.57;;
6997;SDS011;3539;47.982;12.238;2022-12-01T03:30:31;66.13;;;34.13;;
6997;SDS011;3539;47.982;12.238;2022-12-01T03:32:59;70.53;;;36.03;;
6997;SDS011;3539;47.982;12.238;2022-12-01T03:35:29;63.50;;;35.33;;
6997;SDS011;3539;47.982;12.238;2022-12-01T03:38:02;60.67;;;34.60;;
6997;SDS011;3539;47.982;12.238;2022-12-01T03:40:31;66.53;;;36.70;;
6997;SDS011;3539;47.982;12.238;2022-12-01T03:43:01;72.13;;;35.30;;
6997;SDS011;3539;47.982;12.238;2022-12-01T03:45:32;74.10;;;37.17;;
6997;SDS011;3539;47.982;12.238;2022-12-01T03:48:01;74.53;;;38.40;;
6997;SDS011;3539;47.982;12.238;2022-12-01T03:50:29;76.03;;;37.53;;
6997;SDS011;3539;47.982;12.238;2022-12-01T03:53:04;79.90;;;38.50;;
6997;SDS011;3539;47.982;12.238;2022-12-01T03:55:35;72.33;;;36.47;;
6997;SDS011;3539;47.982;12.238;2022-12-01T03:58:05;76.07;;;36.23;;
6997;SDS011;3539;47.982;12.238;2022-12-01T04:00:33;76.20;;;37.03;;
6997;SDS011;3539;47.982;12.238;2022-12-01T04:03:01;73.23;;;35.33;;
6997;SDS011;3539;47.982;12.238;2022-12-01T04:05:31;72.50;;;36.27;;
6997;SDS011;3539;47.982;12.238;2022-12-01T04:07:58;68.90;;;36.87;;
6997;SDS011;3539;47.982;12.238;2022-12-01T04:10:26;75.63;;;38.53;;
6997;SDS011;3539;47.982;12.238;2022-12-01T04:12:53;71.43;;;35.53;;
6997;SDS011;3539;47.982;12.238;2022-12-01T04:15:23;73.53;;;36.73;;
6997;SDS011;3539;47.982;12.238;2022-12-01T04:17:50;84.80;;;39.53;;
6997;SDS011;3539;47.982;12.238;2022-12-01T04:20:17;79.37;;;36.53;;
6997;SDS011;3539;47.982;12.238;2022-12-01T04:22:44;66.77;;;33.47;;
6997;SDS011;3539;47.982;12.238;2022-12-01T04:25:11;74.57;;;37.67;;
6997;SDS011;3539;47.982;12.238;2022-12-01T04:27:39;77.53;;;37.53;;
6997;SDS011;3539;47.982;12.238;2022-12-01T04:30:06;69.03;;;35.83;;
6997;SDS011;3539;47.982;12.238;2022-12-01T04:32:36;70.00;;;36.67;;
6997;SDS011;3539;47.982;12.238;2022-12-01T04:35:03;69.63;;;35.30;;
6997;SDS011;3539;47.982;12.238;2022-12-01T04:37:31;71.97;;;36.37;;
6997;SDS011;3539;47.982;12.238;2022-12-01T04:39:58;77.90;;;36.90;;
6997;SDS011;3539;47.982;12.238;2022-12-01T04:42:24;67.90;;;35.60;;
6997;SDS011;3539;47.982;12.238;2022-12-01T04:44:52;75.53;;;37.60;;
6997;SDS011;3539;47.982;12.238;2022-12-01T04:47:19;73.03;;;36.10;;
6997;SDS011;3539;47.982;12.238;2022-12-01T04:49:46;69.63;;;35.10;;
6997;SDS011;3539;47.982;12.238;2022-12-01T04:52:12;77.87;;;36.07;;
6997;SDS011;3539;47.982;12.238;2022-12-01T04:54:39;70.03;;;35.67;;
6997;SDS011;3539;47.982;12.238;2022-12-01T04:57:06;74.50;;;36.63;;
6997;SDS011;3539;47.982;12.238;2022-12-01T04:59:32;74.07;;;36.47;;
6997;SDS011;3539;47.982;12.238;2022-12-01T05:02:01;73.53;;;36.50;;
6997;SDS011;3539;47.982;12.238;2022-12-01T05:04:28;67.60;;;35.13;;
6997;SDS011;3539;47.982;12.238;2022-12-01T05:06:56;69.17;;;36.43;;
6997;SDS011;3539;47.982;12.238;2022-12-01T05:09:23;75.80;;;37.20;;
6997;SDS011;3539;47.982;12.238;2022-12-01T05:11:49;68.83;;;35.53;;
6997;SDS011;3539;47.982;12.238;2022-12-01T05:14:16;68.70;;;35.83;;
6997;SDS011;3539;47.982;12.238;2022-12-01T05:16:43;72.67;;;36.07;;
6997;SDS011;3539;47.982;12.238;2022-12-01T05:19:11;76.37;;;36.47;;
6997;SDS011;3539;47.982;12.238;2022-12-01T05:21:55;66.47;;;34.03;;
6997;SDS011;3539;47.982;12.238;2022-12-01T05:24:22;74.00;;;38.27;;
6997;SDS011;3539;47.982;12.238;2022-12-01T05:26:48;71.50;;;35.43;;
6997;SDS011;3539;47.982;12.238;2022-12-01T05:29:15;74.90;;;36.50;;
6997;SDS011;3539;47.982;12.238;2022-12-01T05:31:43;74.70;;;37.57;;
6997;SDS011;3539;47.982;12.238;2022-12-01T05:34:11;75.67;;;36.17;;
6997;SDS011;3539;47.982;12.238;2022-12-01T05:36:38;76.13;;;36.73;;
6997;SDS011;3539;47.982;12.238;2022-12-01T05:39:06;69.73;;;34.87;;
6997;SDS011;3539;47.982;12.238;2022-12-01T05:41:32;70.83;;;36.33;;
6997;SDS011;3539;47.982;12.238;2022-12-01T05:43:59;74.43;;;35.50;;
6997;SDS011;3539;47.982;12.238;2022-12-01T05:46:26;74.13;;;34.77;;
6997;SDS011;3539;47.982;12.238;2022-12-01T05:48:52;67.13;;;35.73;;
6997;SDS011;3539;47.982;12.238;2022-12-01T05:51:21;72.17;;;35.97;;
6997;SDS011;3539;47.982;12.238;2022-12-01T05:53:47;62.10;;;32.20;;
6997;SDS011;3539;47.982;12.238;2022-12-01T05:56:14;65.97;;;35.13;;
6997;SDS011;3539;47.982;12.238;2022-12-01T05:58:41;66.07;;;34.00;;
6997;SDS011;3539;47.982;12.238;2022-12-01T06:01:08;68.00;;;37.57;;
6997;SDS011;3539;47.982;12.238;2022-12-01T06:03:35;70.53;;;36.43;;
6997;SDS011;3539;47.982;12.238;2022-12-01T06:06:01;67.17;;;35.07;;
6997;SDS011;3539;47.982;12.238;2022-12-01T06:08:30;69.40;;;34.30;;
6997;SDS011;3539;47.982;12.238;2022-12-01T06:10:56;67.67;;;35.23;;
6997;SDS011;3539;47.982;12.238;2022-12-01T06:13:23;65.53;;;34.33;;
6997;SDS011;3539;47.982;12.238;2022-12-01T06:15:56;72.00;;;37.17;;
6997;SDS011;3539;47.982;12.238;2022-12-01T06:18:26;67.83;;;34.87;;
6997;SDS011;3539;47.982;12.238;2022-12-01T06:20:55;65.37;;;35.80;;
6997;SDS011;3539;47.982;12.238;2022-12-01T06:23:22;67.07;;;36.30;;
6997;SDS011;3539;47.982;12.238;2022-12-01T06:25:50;67.07;;;35.80;;
6997;SDS011;3539;47.982;12.238;2022-12-01T06:28:17;75.13;;;36.83;;
6997;SDS011;3539;47.982;12.238;2022-12-01T06:30:48;62.43;;;34.57;;
6997;SDS011;3539;47.982;12.238;2022-12-01T06:33:14;64.40;;;35.43;;
6997;SDS011;3539;47.982;12.238;2022-12-01T06:35:42;65.13;;;35.20;;
6997;SDS011;3539;47.982;12.238;2022-12-01T06:38:08;71.37;;;35.40;;
6997;SDS011;3539;47.982;12.238;2022-12-01T06:40:35;69.20;;;36.70;;
6997;SDS011;3539;47.982;12.238;2022-12-01T06:43:03;72.93;;;37.03;;
6997;SDS011;3539;47.982;12.238;2022-12-01T06:45:30;70.73;;;36.07;;
6997;SDS011;3539;47.982;12.238;2022-12-01T06:47:57;67.73;;;34.80;;
6997;SDS011;3539;47.982;12.238;2022-12-01T06:50:24;68.70;;;34.60;;
6997;SDS011;3539;47.982;12.238;2022-12-01T06:52:50;72.83;;;36.60;;
6997;SDS011;3539;47.982;12.238;2022-12-01T06:55:17;72.67;;;36.87;;
6997;SDS011;3539;47.982;12.238;2022-12-01T06:57:44;68.30;;;35.87;;
6997;SDS011;3539;47.982;12.238;2022-12-01T07:00:13;72.23;;;35.13;;
6997;SDS011;3539;47.982;12.238;2022-12-01T07:02:40;69.13;;;36.43;;
6997;SDS011;3539;47.982;12.238;2022-12-01T07:05:07;69.40;;;35.83;;
6997;SDS011;3539;47.982;12.238;2022-12-01T07:07:35;69.33;;;35.87;;
6997;SDS011;3539;47.982;12.238;2022-12-01T07:10:02;72.83;;;36.10;;
6997;SDS011;3539;47.982;12.238;2022-12-01T07:12:29;73.33;;;36.33;;
6997;SDS011;3539;47.982;12.238;2022-12-01T07:14:56;72.83;;;36.07;;
6997;SDS011;3539;47.982;12.238;2022-12-01T07:17:24;75.80;;;35.20;;
6997;SDS011;3539;47.982;12.238;2022-12-01T07:19:51;79.83;;;36.23;;
6997;SDS011;3539;47.982;12.238;2022-12-01T07:22:18;75.87;;;35.37;;
6997;SDS011;3539;47.982;12.238;2022-12-01T07:24:45;75.77;;;36.67;;
6997;SDS011;3539;47.982;12.238;2022-12-01T07:27:11;77.57;;;37.33;;
6997;SDS011;3539;47.982;12.238;2022-12-01T07:29:38;66.83;;;35.33;;
6997;SDS011;3539;47.982;12.238;2022-12-01T07:32:05;73.97;;;35.50;;
6997;SDS011;3539;47.982;12.238;2022-12-01T07:34:33;69.43;;;36.27;;
6997;SDS011;3539;47.982;12.238;2022-12-01T07:36:59;71.97;;;35.50;;
6997;SDS011;3539;47.982;12.238;2022-12-01T07:39:26;73.20;;;35.70;;
6997;SDS011;3539;47.982;12.238;2022-12-01T07:41:53;74.47;;;36.77;;
6997;SDS011;3539;47.982;12.238;2022-12-01T07:44:19;67.17;;;35.10;;
6997;SDS011;3539;47.982;12.238;2022-12-01T07:46:46;68.93;;;34.50;;
6997;SDS011;3539;47.982;12.238;2022-12-01T07:49:13;72.90;;;35.53;;
6997;SDS011;3539;47.982;12.238;2022-12-01T07:51:41;88.27;;;43.17;;
6997;SDS011;3539;47.982;12.238;2022-12-01T07:54:08;78.13;;;38.37;;
6997;SDS011;3539;47.982;12.238;2022-12-01T07:56:38;76.40;;;37.03;;
6997;SDS011;3539;47.982;12.238;2022-12-01T07:59:05;70.03;;;35.43;;
6997;SDS011;3539;47.982;12.238;2022-12-01T08:01:32;72.73;;;34.97;;
6997;SDS011;3539;47.982;12.238;2022-12-01T08:03:59;67.50;;;35.93;;
6997;SDS011;3539;47.982;12.238;2022-12-01T08:06:26;70.77;;;35.17;;
6997;SDS011;3539;47.982;12.238;2022-12-01T08:08:55;65.77;;;35.17;;
6997;SDS011;3539;47.982;12.238;2022-12-01T08:11:22;62.67;;;33.70;;
6997;SDS011;3539;47.982;12.238;2022-12-01T08:13:50;71.70;;;35.97;;
6997;SDS011;3539;47.982;12.238;2022-12-01T08:16:19;72.53;;;36.00;;
6997;SDS011;3539;47.982;12.238;2022-12-01T08:18:46;68.33;;;35.50;;
6997;SDS011;3539;47.982;12.238;2022-12-01T08:21:14;66.13;;;35.23;;
6997;SDS011;3539;47.982;12.238;2022-12-01T08:23:42;65.63;;;34.10;;
6997;SDS011;3539;47.982;12.238;2022-12-01T08:26:12;58.70;;;33.23;;
6997;SDS011;3539;47.982;12.238;2022-12-01T08:28:39;69.03;;;35.00;;
6997;SDS011;3539;47.982;12.238;2022-12-01T08:31:07;72.67;;;35.87;;
6997;SDS011;3539;47.982;12.238;2022-12-01T08:33:34;73.73;;;35.97;;
6997;SDS011;3539;47.982;12.238;2022-12-01T08:36:01;66.07;;;34.47;;
6997;SDS011;3539;47.982;12.238;2022-12-01T08:38:28;63.47;;;33.73;;
6997;SDS011;3539;47.982;12.238;2022-12-01T08:40:59;60.97;;;33.73;;
6997;SDS011;3539;47.982;12.238;2022-12-01T08:43:28;62.17;;;34.03;;
6997;SDS011;3539;47.982;12.238;2022-12-01T08:45:56;57.37;;;33.43;;
6997;SDS011;3539;47.982;12.238;2022-12-01T08:48:23;63.77;;;36.77;;
6997;SDS011;3539;47.982;12.238;2022-12-01T08:50:50;65.17;;;35.13;;
6997;SDS011;3539;47.982;12.238;2022-12-01T08:53:17;56.83;;;32.67;;
6997;SDS011;3539;47.982;12.238;2022-12-01T08:55:44;67.70;;;35.13;;
6997;SDS011;3539;47.982;12.238;2022-12-01T08:58:11;63.00;;;34.37;;
6997;SDS011;3539;47.982;12.238;2022-12-01T09:00:39;60.87;;;34.10;;
6997;SDS011;3539;47.982;12.238;2022-12-01T09:03:06;59.00;;;31.83;;
6997;SDS011;3539;47.982;12.238;2022-12-01T09:05:32;61.73;;;32.23;;
6997;SDS011;3539;47.982;12.238;2022-12-01T09:07:59;62.63;;;34.17;;
6997;SDS011;3539;47.982;12.238;2022-12-01T09:10:49;58.23;;;32.53;;
6997;SDS011;3539;47.982;12.238;2022-12-01T09:13:16;58.60;;;32.83;;
6997;SDS011;3539;47.982;12.238;2022-12-01T09:15:45;53.80;;;30.37;;
6997;SDS011;3539;47.982;12.238;2022-12-01T09:18:20;54.20;;;30.10;;
6997;SDS011;3539;47.982;12.238;2022-12-01T09:20:46;50.33;;;29.83;;
6997;SDS011;3539;47.982;12.238;2022-12-01T09:23:13;48.10;;;29.27;;
6997;SDS011;3539;47.982;12.238;2022-12-01T09:25:40;47.33;;;26.40;;
6997;SDS011;3539;47.982;12.238;2022-12-01T09:28:06;42.37;;;27.23;;
6997;SDS011;3539;47.982;12.238;2022-12-01T09:30:33;42.87;;;24.77;;
6997;SDS011;3539;47.982;12.238;2022-12-01T09:33:02;40.13;;;24.27;;
6997;SDS011;3539;47.982;12.238;2022-12-01T09:35:29;36.27;;;23.30;;
6997;SDS011;3539;47.982;12.238;2022-12-01T09:37:56;45.30;;;27.70;;
6997;SDS011;3539;47.982;12.238;2022-12-01T09:40:23;44.03;;;26.87;;
6997;SDS011;3539;47.982;12.238;2022-12-01T09:42:53;45.27;;;26.77;;
6997;SDS011;3539;47.982;12.238;2022-12-01T09:45:22;44.47;;;28.30;;
6997;SDS011;3539;47.982;12.238;2022-12-01T09:47:50;46.13;;;26.90;;
6997;SDS011;3539;47.982;12.238;2022-12-01T09:50:21;43.33;;;26.27;;
6997;SDS011;3539;47.982;12.238;2022-12-01T09:52:49;44.43;;;27.20;;
6997;SDS011;3539;47.982;12.238;2022-12-01T09:55:18;41.77;;;25.53;;
6997;SDS011;3539;47.982;12.238;2022-12-01T09:57:47;42.13;;;25.60;;
6997;SDS011;3539;47.982;12.238;2022-12-01T10:00:16;43.97;;;26.10;;
6997;SDS011;3539;47.982;12.238;2022-12-01T10:02:46;38.33;;;24.93;;
6997;SDS011;3539;47.982;12.238;2022-12-01T10:05:16;42.13;;;25.80;;
6997;SDS011;3539;47.982;12.238;2022-12-01T10:07:47;41.53;;;25.47;;
6997;SDS011;3539;47.982;12.238;2022-12-01T10:10:19;43.47;;;25.10;;
6997;SDS011;3539;47.982;12.238;2022-12-01T10:12:51;40.53;;;24.90;;
6997;SDS011;3539;47.982;12.238;2022-12-01T10:15:23;38.27;;;23.93;;
6997;SDS011;3539;47.982;12.238;2022-12-01T10:18:02;42.60;;;26.20;;
6997;SDS011;3539;47.982;12.238;2022-12-01T10:20:38;39.87;;;24.70;;
6997;SDS011;3539;47.982;12.238;2022-12-01T10:23:14;42.20;;;25.30;;
6997;SDS011;3539;47.982;12.238;2022-12-01T10:25:50;43.47;;;26.50;;
6997;SDS011;3539;47.982;12.238;2022-12-01T10:28:32;40.07;;;25.07;;
6997;SDS011;3539;47.982;12.238;2022-12-01T10:31:10;38.70;;;25.57;;
6997;SDS011;3539;47.982;12.238;2022-12-01T10:33:44;42.07;;;25.27;;
6997;SDS011;3539;47.982;12.238;2022-12-01T10:36:20;44.70;;;26.93;;
6997;SDS011;3539;47.982;12.238;2022-12-01T10:38:52;44.63;;;26.33;;
6997;SDS011;3539;47.982;12.238;2022-12-01T10:41:20;42.63;;;26.40;;
6997;SDS011;3539;47.982;12.238;2022-12-01T10:43:49;47.63;;;27.10;;
6997;SDS011;3539;47.982;12.238;2022-12-01T10:46:19;40.67;;;26.03;;
6997;SDS011;3539;47.982;12.238;2022-12-01T10:48:53;44.60;;;25.47;;
6997;SDS011;3539;47.982;12.238;2022-12-01T10:51:21;41.83;;;25.10;;
6997;SDS011;3539;47.982;12.238;2022-12-01T10:53:50;43.13;;;25.93;;
6997;SDS011;3539;47.982;12.238;2022-12-01T10:56:23;44.43;;;26.60;;
6997;SDS011;3539;47.982;12.238;2022-12-01T10:58:50;44.93;;;26.53;;
6997;SDS011;3539;47.982;12.238;2022-12-01T11:01:19;37.80;;;25.03;;
6997;SDS011;3539;47.982;12.238;2022-12-01T11:03:51;37.57;;;24.63;;
6997;SDS011;3539;47.982;12.238;2022-12-01T11:06:24;42.53;;;25.47;;
6997;SDS011;3539;47.982;12.238;2022-12-01T11:09:00;43.47;;;26.00;;
6997;SDS011;3539;47.982;12.238;2022-12-01T11:11:30;44.40;;;26.53;;
6997;SDS011;3539;47.982;12.238;2022-12-01T11:13:59;40.53;;;26.33;;
6997;SDS011;3539;47.982;12.238;2022-12-01T11:16:33;37.97;;;25.93;;
6997;SDS011;3539;47.982;12.238;2022-12-01T11:19:09;43.53;;;25.70;;
6997;SDS011;3539;47.982;12.238;2022-12-01T11:21:48;42.50;;;27.00;;
6997;SDS011;3539;47.982;12.238;2022-12-01T11:24:24;41.03;;;25.53;;
6997;SDS011;3539;47.982;12.238;2022-12-01T11:26:53;47.80;;;27.77;;
6997;SDS011;3539;47.982;12.238;2022-12-01T11:29:23;43.47;;;26.57;;
6997;SDS011;3539;47.982;12.238;2022-12-01T11:31:54;43.87;;;26.60;;
6997;SDS011;3539;47.982;12.238;2022-12-01T11:34:22;40.53;;;25.43;;
6997;SDS011;3539;47.982;12.238;2022-12-01T11:36:52;43.70;;;26.70;;
6997;SDS011;3539;47.982;12.238;2022-12-01T11:39:21;43.80;;;26.33;;
6997;SDS011;3539;47.982;12.238;2022-12-01T11:41:53;36.93;;;25.33;;
6997;SDS011;3539;47.982;12.238;2022-12-01T11:44:20;37.13;;;24.47;;
6997;SDS011;3539;47.982;12.238;2022-12-01T11:46:47;36.80;;;23.30;;
6997;SDS011;3539;47.982;12.238;2022-12-01T11:49:15;38.60;;;24.00;;
6997;SDS011;3539;47.982;12.238;2022-12-01T11:51:42;37.63;;;23.93;;
6997;SDS011;3539;47.982;12.238;2022-12-01T11:54:21;36.10;;;23.83;;
6997;SDS011;3539;47.982;12.238;2022-12-01T11:56:50;42.80;;;24.23;;
6997;SDS011;3539;47.982;12.238;2022-12-01T11:59:19;38.43;;;23.93;;
6997;SDS011;3539;47.982;12.238;2022-12-01T12:02:00;42.17;;;24.43;;
6997;SDS011;3539;47.982;12.238;2022-12-01T12:04:37;39.43;;;24.60;;
6997;SDS011;3539;47.982;12.238;2022-12-01T12:07:22;36.30;;;23.87;;
6997;SDS011;3539;47.982;12.238;2022-12-01T12:09:59;41.97;;;25.70;;
6997;SDS011;3539;47.982;12.238;2022-12-01T12:12:37;37.13;;;23.97;;
6997;SDS011;3539;47.982;12.238;2022-12-01T12:15:16;36.03;;;23.97;;
6997;SDS011;3539;47.982;12.238;2022-12-01T12:17:54;40.30;;;23.73;;
6997;SDS011;3539;47.982;12.238;2022-12-01T12:20:41;38.33;;;23.77;;
6997;SDS011;3539;47.982;12.238;2022-12-01T12:23:19;38.80;;;22.57;;
6997;SDS011;3539;47.982;12.238;2022-12-01T12:25:54;37.17;;;25.10;;
6997;SDS011;3539;47.982;12.238;2022-12-01T12:28:32;37.37;;;23.03;;
6997;SDS011;3539;47.982;12.238;2022-12-01T12:31:10;36.20;;;22.33;;
6997;SDS011;3539;47.982;12.238;2022-12-01T12:33:51;35.83;;;22.27;;
6997;SDS011;3539;47.982;12.238;2022-12-01T12:36:37;33.90;;;21.00;;
6997;SDS011;3539;47.982;12.238;2022-12-01T12:39:13;34.97;;;21.40;;
6997;SDS011;3539;47.982;12.238;2022-12-01T12:41:55;32.77;;;20.87;;
6997;SDS011;3539;47.982;12.238;2022-12-01T12:44:28;32.53;;;20.80;;
6997;SDS011;3539;47.982;12.238;2022-12-01T12:47:02;32.27;;;20.63;;
6997;SDS011;3539;47.982;12.238;2022-12-01T12:49:35;31.50;;;20.73;;
6997;SDS011;3539;47.982;12.238;2022-12-01T12:52:09;31.87;;;21.40;;
6997;SDS011;3539;47.982;12.238;2022-12-01T12:54:41;31.57;;;20.07;;
6997;SDS011;3539;47.982;12.238;2022-12-01T12:57:19;31.03;;;20.23;;
6997;SDS011;3539;47.982;12.238;2022-12-01T12:59:56;32.20;;;19.40;;
6997;SDS011;3539;47.982;12.238;2022-12-01T13:02:26;33.40;;;20.03;;
6997;SDS011;3539;47.982;12.238;2022-12-01T13:04:58;31.77;;;20.30;;
6997;SDS011;3539;47.982;12.238;2022-12-01T13:07:31;29.17;;;20.00;;
6997;SDS011;3539;47.982;12.238;2022-12-01T13:10:02;32.80;;;19.53;;
6997;SDS011;3539;47.982;12.238;2022-12-01T13:12:36;27.43;;;19.00;;
6997;SDS011;3539;47.982;12.238;2022-12-01T13:15:12;29.93;;;20.43;;
6997;SDS011;3539;47.982;12.238;2022-12-01T13:17:41;31.37;;;20.30;;
6997;SDS011;3539;47.982;12.238;2022-12-01T13:20:11;30.33;;;19.30;;
6997;SDS011;3539;47.982;12.238;2022-12-01T13:22:38;31.90;;;20.47;;
6997;SDS011;3539;47.982;12.238;2022-12-01T13:25:06;31.60;;;19.63;;
6997;SDS011;3539;47.982;12.238;2022-12-01T13:27:33;28.40;;;19.57;;
6997;SDS011;3539;47.982;12.238;2022-12-01T13:30:03;40.93;;;25.43;;
6997;SDS011;3539;47.982;12.238;2022-12-01T13:32:31;30.47;;;20.97;;
6997;SDS011;3539;47.982;12.238;2022-12-01T13:35:00;35.13;;;20.80;;
6997;SDS011;3539;47.982;12.238;2022-12-01T13:37:29;26.50;;;19.00;;
6997;SDS011;3539;47.982;12.238;2022-12-01T13:40:05;28.53;;;20.07;;
6997;SDS011;3539;47.982;12.238;2022-12-01T13:42:33;31.43;;;20.60;;
6997;SDS011;3539;47.982;12.238;2022-12-01T13:45:06;26.27;;;18.83;;
6997;SDS011;3539;47.982;12.238;2022-12-01T13:47:38;24.83;;;18.03;;
6997;SDS011;3539;47.982;12.238;2022-12-01T13:50:36;26.90;;;18.87;;
6997;SDS011;3539;47.982;12.238;2022-12-01T13:53:10;29.13;;;19.47;;
6997;SDS011;3539;47.982;12.238;2022-12-01T13:55:51;29.53;;;20.50;;
6997;SDS011;3539;47.982;12.238;2022-12-01T13:58:28;27.60;;;19.43;;
6997;SDS011;3539;47.982;12.238;2022-12-01T14:04:27;27.17;;;19.63;;
6997;SDS011;3539;47.982;12.238;2022-12-01T14:07:14;29.23;;;20.97;;
6997;SDS011;3539;47.982;12.238;2022-12-01T14:09:47;28.00;;;20.23;;
6997;SDS011;3539;47.982;12.238;2022-12-01T14:12:24;30.23;;;20.37;;
6997;SDS011;3539;47.982;12.238;2022-12-01T14:14:55;30.73;;;20.20;;
6997;SDS011;3539;47.982;12.238;2022-12-01T14:17:28;28.07;;;19.80;;
6997;SDS011;3539;47.982;12.238;2022-12-01T14:20:02;30.47;;;20.70;;
6997;SDS011;3539;47.982;12.238;2022-12-01T14:22:33;31.70;;;20.03;;
6997;SDS011;3539;47.982;12.238;2022-12-01T14:25:03;29.60;;;19.23;;
6997;SDS011;3539;47.982;12.238;2022-12-01T14:27:39;26.40;;;19.13;;
6997;SDS011;3539;47.982;12.238;2022-12-01T14:36:08;29.50;;;20.43;;
6997;SDS011;3539;47.982;12.238;2022-12-01T14:38:43;28.70;;;19.40;;
6997;SDS011;3539;47.982;12.238;2022-12-01T14:41:14;28.27;;;19.63;;
6997;SDS011;3539;47.982;12.238;2022-12-01T14:43:45;29.23;;;20.50;;
6997;SDS011;3539;47.982;12.238;2022-12-01T14:46:34;29.23;;;20.50;;
6997;SDS011;3539;47.982;12.238;2022-12-01T14:49:09;28.17;;;19.47;;
6997;SDS011;3539;47.982;12.238;2022-12-01T14:51:39;29.63;;;19.57;;
6997;SDS011;3539;47.982;12.238;2022-12-01T14:54:11;28.20;;;19.40;;
6997;SDS011;3539;47.982;12.238;2022-12-01T14:56:42;26.53;;;19.30;;
6997;SDS011;3539;47.982;12.238;2022-12-01T14:59:13;30.80;;;20.47;;
6997;SDS011;3539;47.982;12.238;2022-12-01T15:01:41;30.10;;;20.97;;
6997;SDS011;3539;47.982;12.238;2022-12-01T15:04:07;31.40;;;19.83;;
6997;SDS011;3539;47.982;12.238;2022-12-01T15:06:36;28.53;;;20.60;;